createdAt,value
2023-05-21T00:02:04.438Z,101323.86
2023-05-21T00:04:34.242Z,101325.00
2023-05-21T00:07:04.144Z,101325.11
2023-05-21T00:09:33.499Z,101327.46
2023-05-21T00:12:04.978Z,101327.46
2023-05-21T00:14:35.276Z,101324.89
2023-05-21T00:17:05.585Z,101323.98
2023-05-21T00:19:34.968Z,101322.34
2023-05-21T00:22:07.557Z,101319.51
2023-05-21T00:24:38.160Z,101316.80
2023-05-21T00:27:07.400Z,101318.58
2023-05-21T00:29:36.635Z,101316.77
2023-05-21T00:32:09.247Z,101316.58
2023-05-21T00:34:38.609Z,101315.23
2023-05-21T00:37:10.153Z,101315.32
2023-05-21T00:39:39.827Z,101312.52
2023-05-21T00:42:09.338Z,101312.87
2023-05-21T00:44:39.586Z,101314.36
2023-05-21T00:47:09.621Z,101312.84
2023-05-21T00:49:39.125Z,101310.42
2023-05-21T00:52:10.114Z,101305.97
2023-05-21T00:54:41.865Z,101305.81
2023-05-21T00:57:11.463Z,101301.68
2023-05-21T00:59:41.315Z,101301.69
2023-05-21T01:02:14.356Z,101297.88
2023-05-21T01:04:47.585Z,101295.33
2023-05-21T01:07:18.816Z,101294.23
2023-05-21T01:09:48.568Z,101292.36
2023-05-21T01:12:22.191Z,101291.08
2023-05-21T01:14:55.425Z,101288.50
2023-05-21T01:17:30.064Z,101283.65
2023-05-21T01:20:02.649Z,101282.82
2023-05-21T01:22:35.492Z,101283.47
2023-05-21T01:25:05.757Z,101283.07
2023-05-21T01:27:36.452Z,101286.56
2023-05-21T01:30:07.511Z,101287.41
2023-05-21T01:32:48.037Z,101284.95
2023-05-21T01:35:26.711Z,101282.48
2023-05-21T01:38:34.203Z,101279.88
2023-05-21T01:41:10.444Z,101281.86
2023-05-21T01:43:44.145Z,101285.45
2023-05-21T01:46:21.943Z,101287.85
2023-05-21T01:48:53.103Z,101285.77
2023-05-21T01:51:24.271Z,101282.92
2023-05-21T01:53:53.654Z,101286.41
2023-05-21T01:56:25.969Z,101282.77
2023-05-21T01:58:59.769Z,101278.08
2023-05-21T02:01:32.483Z,101273.34
2023-05-21T02:04:02.188Z,101270.13
2023-05-21T02:06:31.991Z,101264.36
2023-05-21T02:09:04.070Z,101267.30
2023-05-21T02:11:33.302Z,101265.37
2023-05-21T02:14:04.135Z,101267.37
2023-05-21T02:16:33.618Z,101271.34
2023-05-21T02:19:04.926Z,101276.62
2023-05-21T02:21:34.360Z,101275.59
2023-05-21T02:24:03.934Z,101274.77
2023-05-21T02:26:33.164Z,101269.43
2023-05-21T02:29:05.673Z,101264.89
2023-05-21T02:31:35.263Z,101266.20
2023-05-21T02:34:05.725Z,101262.60
2023-05-21T02:36:36.304Z,101262.30
2023-05-21T02:39:07.934Z,101260.79
2023-05-21T02:41:38.574Z,101262.27
2023-05-21T02:44:09.811Z,101257.92
2023-05-21T02:46:39.989Z,101252.77
2023-05-21T02:49:09.392Z,101255.83
2023-05-21T02:51:38.743Z,101258.43
2023-05-21T02:54:08.168Z,101260.09
2023-05-21T02:56:37.725Z,101262.44
2023-05-21T02:59:07.419Z,101267.13
2023-05-21T03:01:43.719Z,101265.96
2023-05-21T03:04:13.217Z,101264.15
2023-05-21T03:06:42.869Z,101264.52
2023-05-21T03:09:12.343Z,101270.85
2023-05-21T03:11:44.332Z,101263.73
2023-05-21T03:14:14.718Z,101265.55
2023-05-21T03:16:46.005Z,101270.49
2023-05-21T03:19:15.726Z,101268.58
2023-05-21T03:21:50.730Z,101274.58
2023-05-21T03:24:22.524Z,101280.76
2023-05-21T03:26:51.900Z,101272.95
2023-05-21T03:29:22.143Z,101276.19
2023-05-21T03:31:56.881Z,101278.30
2023-05-21T03:34:26.365Z,101281.38
2023-05-21T03:36:55.736Z,101281.60
2023-05-21T03:39:26.206Z,101279.02
2023-05-21T03:41:57.215Z,101277.97
2023-05-21T03:44:34.756Z,101274.50
2023-05-21T03:47:19.198Z,101273.14
2023-05-21T03:49:51.056Z,101273.19
2023-05-21T03:52:20.581Z,101270.70
2023-05-21T03:54:53.241Z,101270.57
2023-05-21T03:57:25.722Z,101268.66
2023-05-21T04:00:06.696Z,101265.36
2023-05-21T04:02:45.352Z,101269.42
2023-05-21T04:05:16.442Z,101268.42
2023-05-21T04:07:49.041Z,101268.08
2023-05-21T04:10:18.621Z,101262.54
2023-05-21T04:12:52.675Z,101266.05
2023-05-21T04:15:22.671Z,101272.14
2023-05-21T04:17:53.486Z,101279.23
2023-05-21T04:20:23.079Z,101276.54
2023-05-21T04:22:53.147Z,101275.89
2023-05-21T04:25:23.416Z,101278.48
2023-05-21T04:27:54.839Z,101286.18
2023-05-21T04:30:25.011Z,101291.38
2023-05-21T04:32:55.081Z,101290.23
2023-05-21T04:35:24.791Z,101292.66
2023-05-21T04:37:55.347Z,101288.77
2023-05-21T04:40:25.975Z,101288.11
2023-05-21T04:42:57.338Z,101288.91
2023-05-21T04:45:27.265Z,101285.88
2023-05-21T04:48:00.759Z,101278.98
2023-05-21T04:50:31.822Z,101277.37
2023-05-21T04:53:03.541Z,101276.48
2023-05-21T04:55:33.291Z,101275.61
2023-05-21T04:58:04.360Z,101277.14
2023-05-21T05:00:35.081Z,101277.39
2023-05-21T05:03:06.673Z,101282.16
2023-05-21T05:05:36.529Z,101283.27
2023-05-21T05:08:07.823Z,101284.13
2023-05-21T05:10:37.291Z,101285.45
2023-05-21T05:13:07.843Z,101287.60
2023-05-21T05:15:37.833Z,101292.30
2023-05-21T05:18:08.846Z,101293.05
2023-05-21T05:20:39.821Z,101294.25
2023-05-21T05:23:10.624Z,101293.21
2023-05-21T05:25:40.650Z,101289.62
2023-05-21T05:28:12.333Z,101294.39
2023-05-21T05:30:42.427Z,101296.33
2023-05-21T05:33:23.795Z,101295.61
2023-05-21T05:35:54.845Z,101298.17
2023-05-21T05:38:27.110Z,101293.86
2023-05-21T05:40:56.648Z,101296.77
2023-05-21T05:43:28.135Z,101295.90
2023-05-21T05:45:58.343Z,101295.89
2023-05-21T05:48:27.849Z,101292.16
2023-05-21T05:50:57.482Z,101295.01
2023-05-21T05:53:28.183Z,101287.55
2023-05-21T05:56:00.262Z,101289.80
2023-05-21T05:58:31.890Z,101284.60
2023-05-21T06:01:10.476Z,101284.25
2023-05-21T06:03:40.035Z,101287.98
2023-05-21T06:06:38.986Z,101288.27
2023-05-21T06:09:10.946Z,101291.53
2023-05-21T06:11:41.219Z,101290.86
2023-05-21T06:14:13.057Z,101289.75
2023-05-21T06:16:42.888Z,101288.20
2023-05-21T06:19:15.667Z,101286.69
2023-05-21T06:21:47.810Z,101276.77
2023-05-21T06:24:17.480Z,101274.95
2023-05-21T06:26:47.186Z,101272.24
2023-05-21T06:29:17.467Z,101270.69
2023-05-21T06:31:48.796Z,101275.37
2023-05-21T06:34:18.750Z,101272.56
2023-05-21T06:36:49.159Z,101272.73
2023-05-21T06:39:19.315Z,101269.52
2023-05-21T06:41:48.995Z,101272.80
2023-05-21T06:45:00.481Z,101268.78
2023-05-21T06:47:38.164Z,101268.80
2023-05-21T06:50:08.236Z,101265.63
2023-05-21T06:52:37.888Z,101260.01
2023-05-21T06:55:09.842Z,101260.64
2023-05-21T06:57:59.136Z,101257.86
2023-05-21T07:00:28.637Z,101255.26
2023-05-21T07:02:58.014Z,101257.73
2023-05-21T07:05:28.965Z,101253.81
2023-05-21T07:07:58.648Z,101249.09
2023-05-21T07:10:28.154Z,101250.00
2023-05-21T07:12:57.668Z,101245.03
2023-05-21T07:15:27.232Z,101243.91
2023-05-21T07:17:56.737Z,101235.23
2023-05-21T07:20:31.223Z,101233.08
2023-05-21T07:23:02.916Z,101235.73
2023-05-21T07:25:32.253Z,101226.04
2023-05-21T07:28:06.427Z,101225.44
2023-05-21T07:30:42.622Z,101221.89
2023-05-21T07:33:16.839Z,101217.81
2023-05-21T07:35:48.213Z,101218.13
2023-05-21T07:38:20.733Z,101217.40
2023-05-21T07:40:51.546Z,101216.24
2023-05-21T07:43:21.333Z,101219.11
2023-05-21T07:45:52.085Z,101218.30
2023-05-21T07:48:21.550Z,101217.34
2023-05-21T07:51:00.736Z,101218.84
2023-05-21T07:53:32.739Z,101218.66
2023-05-21T07:56:03.980Z,101217.97
2023-05-21T07:58:36.694Z,101213.92
2023-05-21T08:01:15.214Z,101213.56
2023-05-21T08:03:45.233Z,101208.69
2023-05-21T08:06:16.189Z,101210.44
2023-05-21T08:08:46.072Z,101207.16
2023-05-21T08:11:16.284Z,101207.67
2023-05-21T08:13:46.334Z,101205.44
2023-05-21T08:16:16.796Z,101206.66
2023-05-21T08:18:46.317Z,101208.05
2023-05-21T08:21:17.155Z,101213.50
2023-05-21T08:23:46.729Z,101214.39
2023-05-21T08:26:19.191Z,101216.75
2023-05-21T08:28:48.782Z,101217.45
2023-05-21T08:31:19.359Z,101218.40
2023-05-21T08:33:53.764Z,101216.76
2023-05-21T08:36:27.202Z,101213.42
2023-05-21T08:39:01.778Z,101212.95
2023-05-21T08:41:38.069Z,101209.02
2023-05-21T08:44:13.420Z,101212.92
2023-05-21T08:46:45.754Z,101209.29
2023-05-21T08:49:19.003Z,101215.02
2023-05-21T08:51:50.756Z,101214.11
2023-05-21T08:54:32.705Z,101220.90
2023-05-21T08:57:04.705Z,101218.10
2023-05-21T08:59:36.077Z,101215.45
2023-05-21T09:02:06.330Z,101223.22
2023-05-21T09:04:41.464Z,101227.96
2023-05-21T09:07:11.288Z,101232.65
2023-05-21T09:10:14.680Z,101227.71
2023-05-21T09:12:44.713Z,101229.94
2023-05-21T09:15:14.509Z,101232.78
2023-05-21T09:17:49.079Z,101233.38
2023-05-21T09:20:33.603Z,101230.61
2023-05-21T09:23:12.597Z,101234.10
2023-05-21T09:25:45.343Z,101232.39
2023-05-21T09:28:17.577Z,101229.38
2023-05-21T09:30:49.061Z,101229.84
2023-05-21T09:33:26.770Z,101222.61
2023-05-21T09:35:59.035Z,101220.20
2023-05-21T09:38:29.682Z,101225.03
2023-05-21T09:41:00.020Z,101222.56
2023-05-21T09:43:31.377Z,101219.20
2023-05-21T09:46:02.251Z,101223.81
2023-05-21T09:48:44.791Z,101220.70
2023-05-21T09:51:21.675Z,101217.08
2023-05-21T09:53:55.813Z,101220.05
2023-05-21T09:56:30.829Z,101217.55
2023-05-21T09:59:04.477Z,101215.70
2023-05-21T10:01:40.914Z,101219.46
2023-05-21T10:04:31.791Z,101224.91
2023-05-21T10:07:02.678Z,101220.77
2023-05-21T10:09:33.838Z,101228.04
2023-05-21T10:12:05.477Z,101222.81
2023-05-21T10:14:36.609Z,101219.63
2023-05-21T10:17:08.835Z,101217.99
2023-05-21T10:19:40.692Z,101216.67
2023-05-21T10:22:10.407Z,101221.27
2023-05-21T10:24:42.673Z,101215.69
2023-05-21T10:27:14.350Z,101222.03
2023-05-21T10:29:48.361Z,101226.96
2023-05-21T10:32:21.841Z,101231.72
2023-05-21T10:34:54.117Z,101227.69
2023-05-21T10:37:28.132Z,101217.60
2023-05-21T10:39:57.944Z,101217.02
2023-05-21T10:42:33.124Z,101220.45
2023-05-21T10:45:54.462Z,101218.02
2023-05-21T10:48:53.129Z,101212.44
2023-05-21T10:51:37.783Z,101215.75
2023-05-21T10:54:19.802Z,101213.42
2023-05-21T10:57:06.082Z,101211.20
2023-05-21T10:59:48.863Z,101210.98
2023-05-21T11:02:20.457Z,101215.70
2023-05-21T11:04:59.414Z,101216.20
2023-05-21T11:07:53.955Z,101212.48
2023-05-21T11:10:41.193Z,101213.79
2023-05-21T11:13:18.917Z,101213.30
2023-05-21T11:15:57.892Z,101210.34
2023-05-21T11:18:38.147Z,101209.69
2023-05-21T11:21:10.992Z,101213.56
2023-05-21T11:24:05.630Z,101212.28
2023-05-21T11:26:52.284Z,101209.26
2023-05-21T11:29:40.547Z,101213.80
2023-05-21T11:32:12.997Z,101211.90
2023-05-21T11:34:48.154Z,101210.20
2023-05-21T11:37:17.960Z,101212.27
2023-05-21T11:39:49.506Z,101210.97
2023-05-21T11:42:31.115Z,101212.34
2023-05-21T11:45:04.664Z,101211.80
2023-05-21T11:47:35.337Z,101209.52
2023-05-21T11:50:05.337Z,101210.23
2023-05-21T11:52:35.190Z,101201.58
2023-05-21T11:55:05.993Z,101200.20
2023-05-21T11:57:35.381Z,101195.05
2023-05-21T12:00:14.193Z,101191.34
2023-05-21T12:02:50.310Z,101189.89
2023-05-21T12:05:20.162Z,101185.33
2023-05-21T12:07:50.628Z,101180.71
2023-05-21T12:10:24.437Z,101179.19
2023-05-21T12:12:57.697Z,101173.01
2023-05-21T12:15:27.792Z,101176.02
2023-05-21T12:17:58.035Z,101176.83
2023-05-21T12:20:28.863Z,101177.31
2023-05-21T12:22:59.978Z,101172.74
2023-05-21T12:25:30.419Z,101167.73
2023-05-21T12:28:02.114Z,101165.95
2023-05-21T12:30:32.075Z,101163.85
2023-05-21T12:33:02.597Z,101159.01
2023-05-21T12:35:32.450Z,101158.58
2023-05-21T12:38:03.369Z,101154.69
2023-05-21T12:40:40.628Z,101151.98
2023-05-21T12:43:10.658Z,101151.52
2023-05-21T12:45:40.977Z,101155.49
2023-05-21T12:48:12.811Z,101151.63
2023-05-21T12:50:44.190Z,101146.30
2023-05-21T12:53:13.764Z,101146.05
2023-05-21T12:55:43.314Z,101140.91
2023-05-21T12:58:14.529Z,101137.92
2023-05-21T13:00:46.743Z,101138.88
2023-05-21T13:03:16.667Z,101132.48
2023-05-21T13:05:46.200Z,101132.73
2023-05-21T13:08:18.224Z,101129.00
2023-05-21T13:10:51.711Z,101130.33
2023-05-21T13:13:21.543Z,101127.36
2023-05-21T13:15:51.176Z,101124.66
2023-05-21T13:18:23.501Z,101123.89
2023-05-21T13:20:53.117Z,101119.73
2023-05-21T13:23:22.827Z,101113.37
2023-05-21T13:25:52.291Z,101112.13
2023-05-21T13:28:22.174Z,101109.30
2023-05-21T13:30:56.162Z,101111.34
2023-05-21T13:33:25.768Z,101106.73
2023-05-21T13:35:55.396Z,101107.61
2023-05-21T13:38:25.070Z,101105.36
2023-05-21T13:40:56.732Z,101105.39
2023-05-21T13:43:26.213Z,101099.44
2023-05-21T13:45:55.508Z,101095.75
2023-05-21T13:48:25.161Z,101096.23
2023-05-21T13:50:55.095Z,101095.11
2023-05-21T13:53:26.024Z,101097.81
2023-05-21T13:55:56.632Z,101091.35
2023-05-21T13:58:28.109Z,101090.08
2023-05-21T14:00:57.798Z,101090.08
2023-05-21T14:03:27.960Z,101087.39
2023-05-21T14:05:57.947Z,101085.91
2023-05-21T14:08:29.162Z,101086.20
2023-05-21T14:10:58.858Z,101085.98
2023-05-21T14:13:29.186Z,101091.77
2023-05-21T14:15:59.877Z,101090.58
2023-05-21T14:18:29.358Z,101087.23
2023-05-21T14:20:59.042Z,101089.11
2023-05-21T14:23:29.574Z,101084.17
2023-05-21T14:25:59.144Z,101081.56
2023-05-21T14:28:28.754Z,101077.83
2023-05-21T14:30:58.013Z,101077.09
2023-05-21T14:33:27.541Z,101070.35
2023-05-21T14:35:57.215Z,101070.66
2023-05-21T14:38:27.914Z,101070.35
2023-05-21T14:40:57.372Z,101074.60
2023-05-21T14:43:26.934Z,101068.98
2023-05-21T14:45:56.373Z,101070.45
2023-05-21T14:48:26.657Z,101066.67
2023-05-21T14:50:56.259Z,101065.88
2023-05-21T14:53:25.526Z,101068.48
2023-05-21T14:55:55.723Z,101067.64
2023-05-21T14:58:25.262Z,101071.78
2023-05-21T15:00:54.782Z,101069.14
2023-05-21T15:03:25.209Z,101074.41
2023-05-21T15:05:55.920Z,101070.59
2023-05-21T15:08:26.020Z,101070.63
2023-05-21T15:10:55.500Z,101069.67
2023-05-21T15:13:24.947Z,101068.80
2023-05-21T15:15:54.965Z,101068.21
2023-05-21T15:18:25.046Z,101065.38
2023-05-21T15:20:56.855Z,101062.75
2023-05-21T15:23:26.324Z,101061.48
2023-05-21T15:25:56.028Z,101060.61
2023-05-21T15:28:26.008Z,101056.74
2023-05-21T15:30:55.642Z,101052.38
2023-05-21T15:33:25.090Z,101050.58
2023-05-21T15:35:54.847Z,101050.95
2023-05-21T15:38:24.423Z,101049.20
2023-05-21T15:40:53.898Z,101048.70
2023-05-21T15:43:23.983Z,101051.98
2023-05-21T15:45:53.394Z,101058.03
2023-05-21T15:48:23.199Z,101060.37
2023-05-21T15:50:53.373Z,101065.55
2023-05-21T15:53:22.823Z,101063.52
2023-05-21T15:55:52.194Z,101066.20
2023-05-21T15:58:22.060Z,101067.83
2023-05-21T16:00:53.382Z,101071.52
2023-05-21T16:03:26.065Z,101074.63
2023-05-21T16:05:55.777Z,101074.80
2023-05-21T16:08:25.222Z,101077.19
2023-05-21T16:10:54.723Z,101080.28
2023-05-21T16:13:24.204Z,101080.98
2023-05-21T16:15:53.658Z,101084.66
2023-05-21T16:18:23.139Z,101084.58
2023-05-21T16:20:55.332Z,101088.86
2023-05-21T16:23:24.846Z,101093.44
2023-05-21T16:25:55.400Z,101097.98
2023-05-21T16:30:58.171Z,101103.27
2023-05-21T16:33:27.785Z,101106.77
2023-05-21T16:35:57.305Z,101109.04
2023-05-21T16:38:26.885Z,101112.56
2023-05-21T16:40:57.154Z,101114.70
2023-05-21T16:43:27.178Z,101116.06
2023-05-21T16:45:56.686Z,101112.02
2023-05-21T16:48:26.266Z,101115.23
2023-05-21T16:50:55.597Z,101115.88
2023-05-21T16:53:27.679Z,101117.08
2023-05-21T16:55:58.316Z,101117.46
2023-05-21T16:58:28.030Z,101115.36
2023-05-21T17:00:58.271Z,101115.11
2023-05-21T17:03:29.045Z,101118.95
2023-05-21T17:05:58.843Z,101115.91
2023-05-21T17:08:28.361Z,101118.65
2023-05-21T17:10:58.538Z,101122.98
2023-05-21T17:13:27.992Z,101125.46
2023-05-21T17:15:57.616Z,101126.14
2023-05-21T17:18:27.093Z,101128.23
2023-05-21T17:20:56.515Z,101134.55
2023-05-21T17:23:28.377Z,101135.36
2023-05-21T17:25:59.056Z,101139.86
2023-05-21T17:28:28.494Z,101140.14
2023-05-21T17:30:58.433Z,101145.11
2023-05-21T17:33:28.317Z,101143.80
2023-05-21T17:35:57.805Z,101142.64
2023-05-21T17:38:27.182Z,101149.52
2023-05-21T17:40:56.788Z,101147.35
2023-05-21T17:43:27.757Z,101150.73
2023-05-21T17:45:57.310Z,101147.66
2023-05-21T17:48:27.030Z,101149.38
2023-05-21T17:50:56.364Z,101152.14
2023-05-21T17:53:26.070Z,101149.61
2023-05-21T17:55:55.446Z,101152.27
2023-05-21T17:58:24.828Z,101155.89
2023-05-21T18:00:54.390Z,101156.29
2023-05-21T18:03:24.368Z,101154.83
2023-05-21T18:05:53.737Z,101156.95
2023-05-21T18:08:23.175Z,101157.80
2023-05-21T18:10:52.596Z,101157.71
2023-05-21T18:13:21.953Z,101158.34
2023-05-21T18:15:51.343Z,101166.86
2023-05-21T18:18:21.774Z,101180.33
2023-05-21T18:20:53.130Z,101191.55
2023-05-21T18:23:23.097Z,101199.45
2023-05-21T18:25:52.442Z,101200.81
2023-05-21T18:28:21.964Z,101207.27
2023-05-21T18:30:51.365Z,101206.48
2023-05-21T18:33:20.889Z,101208.77
2023-05-21T18:35:50.392Z,101213.48
2023-05-21T18:38:19.825Z,101213.40
2023-05-21T18:40:51.442Z,101217.23
2023-05-21T18:43:20.930Z,101221.31
2023-05-21T18:45:50.976Z,101222.31
2023-05-21T18:48:20.451Z,101222.00
2023-05-21T18:50:49.967Z,101225.59
2023-05-21T18:53:19.705Z,101229.42
2023-05-21T18:55:48.978Z,101234.73
2023-05-21T18:58:20.555Z,101231.63
2023-05-21T19:00:50.218Z,101232.54
2023-05-21T19:03:19.825Z,101238.51
2023-05-21T19:05:49.134Z,101239.79
2023-05-21T19:08:18.846Z,101239.17
2023-05-21T19:10:50.491Z,101241.23
2023-05-21T19:13:19.953Z,101243.76
2023-05-21T19:15:49.382Z,101251.55
2023-05-21T19:18:18.850Z,101255.77
2023-05-21T19:20:48.176Z,101262.21
2023-05-21T19:23:17.649Z,101259.16
2023-05-21T19:25:46.969Z,101264.59
2023-05-21T19:28:16.273Z,101262.93
2023-05-21T19:30:46.482Z,101265.36
2023-05-21T19:33:16.129Z,101261.25
2023-05-21T19:35:45.641Z,101260.35
2023-05-21T19:38:16.047Z,101256.04
2023-05-21T19:40:45.612Z,101258.98
2023-05-21T19:43:15.768Z,101261.23
2023-05-21T19:45:46.111Z,101259.77
2023-05-21T19:48:16.291Z,101266.16
2023-05-21T19:50:45.823Z,101272.77
2023-05-21T19:53:16.029Z,101274.98
2023-05-21T19:55:46.276Z,101272.39
2023-05-21T19:58:19.356Z,101269.61
2023-05-21T20:00:49.441Z,101269.83
2023-05-21T20:03:22.318Z,101272.15
2023-05-21T20:05:52.888Z,101275.64
2023-05-21T20:08:22.274Z,101274.64
2023-05-21T20:10:52.153Z,101274.23
2023-05-21T20:13:22.463Z,101276.69
2023-05-21T20:15:52.146Z,101279.29
2023-05-21T20:18:21.857Z,101277.59
2023-05-21T20:20:51.526Z,101275.05
2023-05-21T20:23:21.054Z,101272.10
2023-05-21T20:25:50.605Z,101267.12
2023-05-21T20:28:22.257Z,101267.42
2023-05-21T20:30:58.132Z,101263.25
2023-05-21T20:33:28.304Z,101265.09
2023-05-21T20:36:01.475Z,101262.59
2023-05-21T20:38:32.588Z,101262.83
2023-05-21T20:41:04.234Z,101264.89
2023-05-21T20:43:37.481Z,101272.58
2023-05-21T20:46:11.334Z,101270.60
2023-05-21T20:48:41.941Z,101268.87
2023-05-21T20:51:11.459Z,101263.14
2023-05-21T20:53:41.001Z,101266.84
2023-05-21T20:56:16.109Z,101266.34
2023-05-21T20:58:48.911Z,101265.55
2023-05-21T21:01:18.924Z,101263.45
2023-05-21T21:03:48.347Z,101258.66
2023-05-21T21:06:18.930Z,101258.59
2023-05-21T21:08:50.795Z,101256.33
2023-05-21T21:11:20.254Z,101251.40
2023-05-21T21:13:50.320Z,101250.13
2023-05-21T21:16:19.696Z,101250.38
2023-05-21T21:18:50.214Z,101252.95
2023-05-21T21:21:19.872Z,101253.23
2023-05-21T21:23:49.473Z,101254.70
2023-05-21T21:26:18.929Z,101254.23
2023-05-21T21:28:48.287Z,101249.08
2023-05-21T21:31:17.791Z,101251.40
2023-05-21T21:33:47.443Z,101251.92
2023-05-21T21:36:16.997Z,101253.59
2023-05-21T21:38:46.514Z,101250.49
2023-05-21T21:41:16.018Z,101254.81
2023-05-21T21:43:45.346Z,101254.58
2023-05-21T21:46:15.671Z,101254.12
2023-05-21T21:48:45.453Z,101252.23
2023-05-21T21:51:15.842Z,101248.63
2023-05-21T21:53:45.220Z,101248.09
2023-05-21T21:56:15.121Z,101246.20
2023-05-21T21:58:48.040Z,101249.29
2023-05-21T22:01:17.814Z,101248.95
2023-05-21T22:03:47.513Z,101250.25
2023-05-21T22:06:21.436Z,101256.08
2023-05-21T22:08:51.234Z,101250.85
2023-05-21T22:11:28.845Z,101251.84
2023-05-21T22:14:00.701Z,101247.64
2023-05-21T22:16:30.310Z,101246.48
2023-05-21T22:19:00.536Z,101243.12
2023-05-21T22:21:33.031Z,101249.33
2023-05-21T22:24:02.761Z,101248.80
2023-05-21T22:26:33.553Z,101253.79
2023-05-21T22:29:03.198Z,101257.48
2023-05-21T22:31:32.663Z,101259.96
2023-05-21T22:34:02.120Z,101261.08
2023-05-21T22:36:31.639Z,101264.15
2023-05-21T22:39:03.124Z,101264.21
2023-05-21T22:41:33.109Z,101267.37
2023-05-21T22:44:03.106Z,101271.24
2023-05-21T22:46:32.868Z,101268.00
2023-05-21T22:49:04.204Z,101271.05
2023-05-21T22:54:22.851Z,101270.52
2023-05-21T22:56:52.162Z,101271.05
2023-05-21T22:59:21.502Z,101269.88
2023-05-21T23:01:51.202Z,101261.80
2023-05-21T23:04:35.762Z,101261.21
2023-05-21T23:07:13.205Z,101256.06
2023-05-21T23:09:42.655Z,101252.95
2023-05-21T23:12:12.646Z,101249.76
2023-05-21T23:14:43.528Z,101242.73
2023-05-21T23:17:13.036Z,101241.64
2023-05-21T23:19:45.869Z,101241.52
2023-05-21T23:22:17.192Z,101241.62
2023-05-21T23:24:50.735Z,101239.02
2023-05-21T23:27:22.091Z,101235.83
2023-05-21T23:29:52.673Z,101237.31
2023-05-21T23:32:24.742Z,101234.16
2023-05-21T23:34:54.285Z,101232.27
2023-05-21T23:37:23.819Z,101229.16
2023-05-21T23:39:53.230Z,101229.20
2023-05-21T23:42:25.185Z,101231.99
2023-05-21T23:44:54.606Z,101234.05
2023-05-21T23:47:26.126Z,101232.87
2023-05-21T23:49:58.979Z,101235.04
2023-05-21T23:52:59.677Z,101233.91
2023-05-21T23:55:29.049Z,101234.27
2023-05-21T23:57:58.353Z,101230.58
